createdAt,value
2022-10-20T00:01:10.613Z,100.00
2022-10-20T00:03:40.087Z,99.47
2022-10-20T00:06:10.105Z,98.71
2022-10-20T00:08:37.728Z,97.90
2022-10-20T00:11:05.223Z,98.22
2022-10-20T00:13:32.188Z,97.31
2022-10-20T00:16:00.126Z,96.97
2022-10-20T00:18:27.801Z,97.06
2022-10-20T00:20:55.235Z,97.95
2022-10-20T00:23:22.640Z,97.40
2022-10-20T00:25:49.722Z,97.05
2022-10-20T00:29:06.052Z,97.16
2022-10-20T00:31:33.524Z,97.33
2022-10-20T00:34:00.480Z,98.00
2022-10-20T00:36:27.569Z,97.62
2022-10-20T00:39:00.389Z,97.58
2022-10-20T00:41:28.250Z,98.88
2022-10-20T00:43:56.624Z,99.54
2022-10-20T00:46:27.397Z,99.27
2022-10-20T00:48:58.117Z,98.14
2022-10-20T00:51:27.968Z,98.08
2022-10-20T00:53:58.612Z,98.88
2022-10-20T00:56:25.798Z,99.34
2022-10-20T00:58:52.830Z,99.76
2022-10-20T01:01:19.927Z,100.00
2022-10-20T01:03:51.691Z,100.00
2022-10-20T01:06:21.560Z,100.00
2022-10-20T01:08:49.613Z,100.00
2022-10-20T01:11:29.922Z,100.00
2022-10-20T01:14:26.845Z,97.38
2022-10-20T01:17:14.762Z,98.80
2022-10-20T01:19:50.677Z,98.91
2022-10-20T01:22:37.096Z,99.33
2022-10-20T01:25:13.578Z,99.48
2022-10-20T01:27:45.090Z,100.00
2022-10-20T01:30:12.009Z,100.00
2022-10-20T01:32:52.881Z,98.39
2022-10-20T01:35:38.389Z,97.16
2022-10-20T01:38:26.349Z,98.00
2022-10-20T01:41:14.144Z,99.39
2022-10-20T01:43:43.750Z,98.81
2022-10-20T01:46:12.708Z,97.84
2022-10-20T01:48:40.768Z,97.78
2022-10-20T01:51:10.015Z,96.68
2022-10-20T01:53:37.137Z,96.82
2022-10-20T01:56:06.244Z,98.12
2022-10-20T01:59:00.300Z,98.67
2022-10-20T02:01:53.293Z,99.62
2022-10-20T02:04:30.449Z,98.95
2022-10-20T02:07:07.942Z,98.16
2022-10-20T02:09:41.498Z,98.00
2022-10-20T02:12:14.892Z,97.64
2022-10-20T02:14:43.051Z,97.20
2022-10-20T02:17:16.204Z,96.94
2022-10-20T02:19:46.242Z,96.97
2022-10-20T02:22:14.523Z,96.38
2022-10-20T02:24:44.365Z,95.45
2022-10-20T02:27:20.496Z,95.97
2022-10-20T02:30:09.629Z,94.61
2022-10-20T02:32:39.386Z,94.35
2022-10-20T02:35:13.116Z,94.79
2022-10-20T02:37:40.329Z,92.50
2022-10-20T02:40:08.399Z,92.70
2022-10-20T02:42:35.882Z,93.45
2022-10-20T02:45:03.561Z,92.03
2022-10-20T02:47:30.587Z,90.33
2022-10-20T02:49:57.541Z,91.20
2022-10-20T02:52:24.698Z,90.36
2022-10-20T02:54:51.627Z,89.99
2022-10-20T02:57:18.595Z,88.17
2022-10-20T02:59:45.608Z,89.20
2022-10-20T03:02:12.773Z,88.89
2022-10-20T03:04:39.966Z,89.30
2022-10-20T03:07:07.206Z,92.02
2022-10-20T03:09:34.166Z,86.46
2022-10-20T03:12:01.326Z,86.13
2022-10-20T03:14:28.338Z,85.97
2022-10-20T03:16:55.308Z,84.37
2022-10-20T03:19:22.218Z,83.25
2022-10-20T03:21:49.849Z,82.68
2022-10-20T03:24:16.985Z,82.84
2022-10-20T03:26:44.031Z,83.59
2022-10-20T03:29:11.029Z,83.36
2022-10-20T03:31:38.027Z,83.01
2022-10-20T03:34:05.110Z,82.79
2022-10-20T03:36:32.099Z,82.45
2022-10-20T03:38:58.996Z,81.79
2022-10-20T03:41:25.970Z,83.21
2022-10-20T03:43:52.946Z,82.82
2022-10-20T03:46:19.936Z,83.87
2022-10-20T03:48:46.863Z,82.81
2022-10-20T03:51:14.571Z,80.72
2022-10-20T03:53:41.834Z,79.63
2022-10-20T03:56:10.943Z,79.69
2022-10-20T03:58:38.006Z,79.53
2022-10-20T04:01:06.598Z,78.99
2022-10-20T04:03:33.814Z,80.94
2022-10-20T04:06:00.765Z,78.15
2022-10-20T04:08:27.952Z,78.49
2022-10-20T04:10:54.992Z,77.18
2022-10-20T04:13:21.952Z,77.62
2022-10-20T04:15:48.908Z,78.30
2022-10-20T04:18:16.001Z,78.24
2022-10-20T04:20:44.507Z,76.41
2022-10-20T04:23:12.036Z,76.58
2022-10-20T04:25:45.990Z,77.04
2022-10-20T04:28:14.034Z,76.26
2022-10-20T04:30:41.196Z,75.86
2022-10-20T04:33:08.490Z,74.71
2022-10-20T04:35:35.753Z,75.09
2022-10-20T04:38:02.898Z,76.23
2022-10-20T04:40:29.970Z,76.52
2022-10-20T04:43:00.057Z,75.12
2022-10-20T04:45:27.624Z,74.89
2022-10-20T04:47:54.541Z,75.55
2022-10-20T04:50:21.502Z,75.48
2022-10-20T04:52:59.628Z,75.80
2022-10-20T04:55:26.567Z,75.62
2022-10-20T04:57:54.751Z,75.22
2022-10-20T05:00:21.701Z,75.37
2022-10-20T05:02:48.693Z,75.74
2022-10-20T05:05:15.714Z,76.33
2022-10-20T05:07:42.796Z,75.63
2022-10-20T05:10:10.104Z,74.81
2022-10-20T05:12:37.275Z,75.46
2022-10-20T05:15:04.948Z,74.10
2022-10-20T05:17:31.994Z,74.45
2022-10-20T05:19:58.951Z,73.82
2022-10-20T05:22:26.106Z,74.31
2022-10-20T05:24:53.053Z,73.83
2022-10-20T05:27:19.982Z,73.50
2022-10-20T05:29:47.082Z,75.26
2022-10-20T05:32:14.138Z,75.49
2022-10-20T05:34:41.299Z,75.48
2022-10-20T05:37:08.309Z,75.00
2022-10-20T05:39:35.345Z,75.28
2022-10-20T05:42:03.106Z,75.68
2022-10-20T05:44:30.182Z,76.15
2022-10-20T05:46:57.141Z,75.39
2022-10-20T05:49:24.172Z,73.65
2022-10-20T05:52:02.294Z,74.92
2022-10-20T05:54:35.676Z,76.65
2022-10-20T05:57:06.441Z,76.11
2022-10-20T05:59:34.051Z,75.75
2022-10-20T06:02:01.499Z,74.08
2022-10-20T06:04:28.586Z,76.25
2022-10-20T06:06:56.757Z,75.19
2022-10-20T06:09:24.980Z,74.70
2022-10-20T06:11:53.111Z,72.42
2022-10-20T06:14:22.595Z,71.86
2022-10-20T06:16:56.352Z,72.10
2022-10-20T06:19:24.672Z,71.92
2022-10-20T06:21:52.443Z,71.51
2022-10-20T06:24:20.309Z,71.07
2022-10-20T06:26:47.702Z,71.37
2022-10-20T06:29:17.879Z,69.91
2022-10-20T06:31:47.957Z,68.83
2022-10-20T06:34:20.214Z,70.07
2022-10-20T06:36:48.925Z,70.59
2022-10-20T06:39:22.147Z,69.91
2022-10-20T06:41:52.835Z,69.24
2022-10-20T06:44:22.218Z,70.52
2022-10-20T06:46:52.631Z,71.45
2022-10-20T06:49:20.454Z,70.13
2022-10-20T06:51:47.574Z,69.82
2022-10-20T06:54:15.018Z,69.57
2022-10-20T06:56:42.057Z,68.32
2022-10-20T06:59:09.159Z,68.44
2022-10-20T07:01:38.971Z,68.78
2022-10-20T07:04:07.284Z,70.14
2022-10-20T07:06:45.772Z,69.11
2022-10-20T07:09:16.315Z,69.78
2022-10-20T07:11:44.131Z,68.74
2022-10-20T07:14:14.084Z,66.67
2022-10-20T07:16:41.447Z,67.44
2022-10-20T07:19:08.446Z,66.30
2022-10-20T07:21:38.423Z,65.34
2022-10-20T07:24:09.682Z,64.13
2022-10-20T07:26:39.370Z,64.30
2022-10-20T07:29:07.093Z,65.24
2022-10-20T07:31:38.221Z,63.56
2022-10-20T07:34:23.422Z,62.70
2022-10-20T07:36:52.234Z,61.83
2022-10-20T07:39:19.339Z,61.48
2022-10-20T07:41:48.218Z,62.55
2022-10-20T07:44:16.134Z,62.76
2022-10-20T07:46:43.993Z,62.22
2022-10-20T07:51:58.237Z,62.95
2022-10-20T07:54:25.246Z,64.21
2022-10-20T07:56:52.226Z,64.83
2022-10-20T07:59:19.897Z,65.64
2022-10-20T08:01:47.228Z,64.42
2022-10-20T08:04:14.295Z,66.24
2022-10-20T08:06:41.555Z,64.48
2022-10-20T08:09:08.617Z,64.21
2022-10-20T08:11:36.176Z,64.34
2022-10-20T08:14:03.411Z,64.57
2022-10-20T08:16:34.147Z,64.43
2022-10-20T08:19:05.686Z,64.35
2022-10-20T08:21:33.286Z,65.11
2022-10-20T08:24:02.686Z,62.25
2022-10-20T08:26:29.890Z,62.67
2022-10-20T08:28:56.897Z,62.38
2022-10-20T08:31:24.059Z,62.61
2022-10-20T08:33:53.156Z,63.80
2022-10-20T08:36:21.297Z,63.54
2022-10-20T08:38:48.924Z,64.26
2022-10-20T08:41:34.478Z,64.93
2022-10-20T08:44:05.206Z,67.31
2022-10-20T08:46:37.871Z,68.94
2022-10-20T08:49:15.406Z,65.54
2022-10-20T08:51:42.783Z,68.02
2022-10-20T08:54:15.100Z,69.16
2022-10-20T08:56:42.616Z,66.02
2022-10-20T08:59:36.015Z,67.76
2022-10-20T09:02:15.305Z,67.38
2022-10-20T09:05:00.421Z,63.68
2022-10-20T09:07:37.746Z,62.32
2022-10-20T09:10:24.213Z,63.99
2022-10-20T09:12:52.491Z,62.87
2022-10-20T09:15:21.403Z,59.46
2022-10-20T09:18:01.209Z,61.88
2022-10-20T09:20:37.614Z,57.83
2022-10-20T09:23:16.487Z,59.95
2022-10-20T09:25:53.371Z,56.07
2022-10-20T09:28:26.579Z,57.47
2022-10-20T09:30:55.165Z,55.26
2022-10-20T09:33:32.233Z,56.74
2022-10-20T09:36:06.109Z,59.61
2022-10-20T09:38:35.348Z,59.29
2022-10-20T09:41:10.583Z,58.25
2022-10-20T09:43:40.798Z,58.47
2022-10-20T09:46:11.398Z,57.55
2022-10-20T09:48:42.314Z,56.75
2022-10-20T09:51:16.120Z,56.32
2022-10-20T09:54:04.675Z,60.12
2022-10-20T09:56:40.733Z,56.18
2022-10-20T09:59:19.393Z,54.29
2022-10-20T10:01:58.778Z,51.69
2022-10-20T10:04:50.365Z,52.45
2022-10-20T10:07:26.507Z,53.52
2022-10-20T10:10:21.245Z,53.22
2022-10-20T10:12:56.881Z,56.34
2022-10-20T10:15:31.272Z,55.29
2022-10-20T10:17:59.467Z,53.65
2022-10-20T10:20:34.078Z,55.57
2022-10-20T10:23:21.528Z,57.49
2022-10-20T10:25:49.915Z,56.91
2022-10-20T10:28:32.229Z,57.34
2022-10-20T10:31:24.061Z,58.26
2022-10-20T10:34:11.474Z,58.63
2022-10-20T10:36:38.815Z,59.54
2022-10-20T10:39:12.131Z,59.83
2022-10-20T10:42:25.797Z,59.84
2022-10-20T10:45:24.847Z,59.73
2022-10-20T10:48:00.739Z,62.50
2022-10-20T10:50:37.934Z,62.52
2022-10-20T10:53:07.854Z,61.25
2022-10-20T10:55:48.184Z,59.83
2022-10-20T10:58:38.823Z,61.37
2022-10-20T11:01:05.797Z,61.74
2022-10-20T11:04:00.457Z,62.48
2022-10-20T11:06:40.006Z,60.69
2022-10-20T11:09:32.422Z,61.96
2022-10-20T11:12:28.605Z,62.24
2022-10-20T11:15:26.059Z,62.26
2022-10-20T11:18:06.874Z,63.13
2022-10-20T11:20:41.248Z,62.75
2022-10-20T11:23:53.611Z,65.25
2022-10-20T11:26:36.583Z,62.60
2022-10-20T11:29:10.229Z,63.92
2022-10-20T11:31:48.559Z,66.27
2022-10-20T11:34:30.394Z,66.16
2022-10-20T11:37:06.013Z,65.44
2022-10-20T11:39:54.791Z,65.35
2022-10-20T11:42:24.886Z,65.77
2022-10-20T11:44:54.446Z,66.49
2022-10-20T11:47:35.983Z,67.29
2022-10-20T11:50:11.587Z,66.24
2022-10-20T11:52:50.462Z,64.06
2022-10-20T11:55:29.623Z,66.19
2022-10-20T11:58:15.193Z,65.26
2022-10-20T12:00:50.639Z,64.52
2022-10-20T12:03:39.071Z,63.01
2022-10-20T12:06:31.712Z,64.51
2022-10-20T12:09:07.843Z,64.73
2022-10-20T12:11:52.018Z,63.28
2022-10-20T12:14:28.930Z,64.86
2022-10-20T12:16:55.834Z,63.03
2022-10-20T12:19:30.434Z,62.46
2022-10-20T12:22:06.650Z,62.58
2022-10-20T12:24:39.633Z,63.87
2022-10-20T12:27:29.817Z,66.38
2022-10-20T12:30:35.199Z,65.31
2022-10-20T12:33:39.362Z,64.58
2022-10-20T12:36:26.499Z,63.70
2022-10-20T12:39:08.325Z,67.10
2022-10-20T12:41:55.289Z,66.65
2022-10-20T12:44:23.722Z,64.39
2022-10-20T12:47:09.750Z,65.92
2022-10-20T12:49:40.939Z,67.12
2022-10-20T12:52:21.297Z,65.97
2022-10-20T12:54:55.519Z,65.10
2022-10-20T12:57:38.705Z,65.94
2022-10-20T13:00:08.242Z,65.21
2022-10-20T13:02:55.882Z,66.36
2022-10-20T13:05:40.987Z,66.81
2022-10-20T13:08:20.061Z,67.01
2022-10-20T13:10:48.271Z,68.06
2022-10-20T13:13:18.206Z,69.30
2022-10-20T13:15:54.189Z,67.26
2022-10-20T13:18:30.747Z,67.15
2022-10-20T13:21:09.078Z,66.58
2022-10-20T13:23:41.731Z,66.24
2022-10-20T13:26:23.870Z,67.42
2022-10-20T13:28:53.723Z,68.46
2022-10-20T13:31:38.548Z,66.77
2022-10-20T13:34:26.953Z,66.79
2022-10-20T13:37:12.431Z,69.48
2022-10-20T13:39:42.326Z,69.52
2022-10-20T13:42:50.900Z,69.74
2022-10-20T13:45:38.447Z,69.08
2022-10-20T13:48:05.515Z,70.10
2022-10-20T13:51:01.578Z,71.45
2022-10-20T13:53:40.575Z,71.31
2022-10-20T13:56:20.435Z,70.26
2022-10-20T13:59:05.965Z,68.98
2022-10-20T14:01:36.404Z,68.76
2022-10-20T14:04:19.402Z,69.27
2022-10-20T14:06:47.297Z,69.15
2022-10-20T14:09:25.795Z,69.07
2022-10-20T14:11:58.578Z,70.59
2022-10-20T14:14:27.626Z,70.87
2022-10-20T14:17:04.666Z,73.33
2022-10-20T14:19:33.710Z,73.36
2022-10-20T14:22:11.170Z,73.13
2022-10-20T14:24:45.438Z,71.28
2022-10-20T14:27:33.117Z,71.66
2022-10-20T14:30:04.502Z,72.97
2022-10-20T14:32:40.563Z,73.78
2022-10-20T14:35:23.805Z,73.27
2022-10-20T14:38:04.411Z,71.51
2022-10-20T14:40:34.282Z,72.46
2022-10-20T14:43:06.717Z,71.81
2022-10-20T14:45:33.900Z,72.65
2022-10-20T14:48:01.980Z,71.92
2022-10-20T14:50:36.459Z,71.18
2022-10-20T14:53:28.023Z,72.03
2022-10-20T14:55:56.412Z,72.68
2022-10-20T14:58:56.182Z,73.16
2022-10-20T15:01:23.506Z,71.36
2022-10-20T15:04:24.558Z,71.36
2022-10-20T15:07:21.946Z,71.79
2022-10-20T15:09:52.073Z,72.76
2022-10-20T15:12:20.732Z,73.90
2022-10-20T15:14:51.626Z,74.05
2022-10-20T15:17:37.314Z,73.66
2022-10-20T15:20:43.624Z,75.92
2022-10-20T15:23:24.977Z,77.00
2022-10-20T15:26:13.763Z,76.62
2022-10-20T15:28:45.584Z,76.69
2022-10-20T15:31:22.569Z,78.34
2022-10-20T15:33:50.461Z,78.14
2022-10-20T15:36:29.530Z,78.69
2022-10-20T15:38:56.903Z,79.64
2022-10-20T15:41:30.205Z,79.95
2022-10-20T15:44:04.714Z,82.03
2022-10-20T15:46:31.745Z,82.53
2022-10-20T15:48:58.806Z,83.85
2022-10-20T15:51:28.593Z,83.03
2022-10-20T15:53:56.241Z,82.20
2022-10-20T15:56:23.319Z,83.51
2022-10-20T15:58:50.610Z,84.93
2022-10-20T16:01:19.170Z,85.26
2022-10-20T16:03:47.201Z,85.96
2022-10-20T16:06:16.202Z,87.19
2022-10-20T16:08:44.680Z,87.11
2022-10-20T16:11:13.318Z,87.09
2022-10-20T16:13:40.416Z,88.72
2022-10-20T16:16:09.166Z,88.95
2022-10-20T16:18:36.411Z,88.83
2022-10-20T16:21:05.268Z,88.67
2022-10-20T16:23:34.744Z,88.30
2022-10-20T16:26:05.346Z,88.68
2022-10-20T16:28:32.460Z,90.26
2022-10-20T16:31:05.387Z,91.27
2022-10-20T16:33:32.637Z,90.44
2022-10-20T16:36:02.830Z,91.24
2022-10-20T16:38:29.965Z,90.52
2022-10-20T16:40:58.858Z,89.64
2022-10-20T16:43:25.935Z,89.93
2022-10-20T16:45:53.087Z,90.76
2022-10-20T16:48:20.877Z,91.73
2022-10-20T16:50:47.832Z,94.20
2022-10-20T16:53:15.160Z,94.88
2022-10-20T16:55:51.762Z,95.35
2022-10-20T16:58:18.767Z,95.62
2022-10-20T17:00:46.055Z,95.76
2022-10-20T17:03:16.873Z,97.42
2022-10-20T17:05:46.448Z,100.00
2022-10-20T17:08:13.353Z,99.61
2022-10-20T17:10:41.243Z,100.00
2022-10-20T17:13:10.360Z,99.68
2022-10-20T17:15:37.462Z,99.16
2022-10-20T17:18:04.509Z,98.46
2022-10-20T17:20:31.539Z,99.42
2022-10-20T17:22:58.427Z,99.51
2022-10-20T17:25:25.370Z,98.77
2022-10-20T17:27:52.295Z,99.38
2022-10-20T17:30:19.242Z,99.78
2022-10-20T17:32:46.220Z,100.00
2022-10-20T17:35:14.668Z,100.00
2022-10-20T17:37:42.128Z,100.00
2022-10-20T17:40:09.684Z,100.00
2022-10-20T17:42:36.827Z,100.00
2022-10-20T17:45:04.324Z,100.00
2022-10-20T17:47:31.531Z,99.94
2022-10-20T17:49:58.581Z,100.00
2022-10-20T17:52:25.563Z,100.00
2022-10-20T17:54:52.523Z,100.00
2022-10-20T17:57:22.520Z,100.00
2022-10-20T17:59:53.352Z,100.00
2022-10-20T18:02:23.897Z,100.00
2022-10-20T18:04:51.544Z,100.00
2022-10-20T18:07:18.519Z,100.00
2022-10-20T18:09:45.534Z,100.00
2022-10-20T18:12:12.621Z,100.00
2022-10-20T18:14:39.561Z,100.00
2022-10-20T18:17:06.625Z,100.00
2022-10-20T18:19:33.763Z,100.00
2022-10-20T18:22:00.811Z,100.00
2022-10-20T18:24:27.847Z,100.00
2022-10-20T18:26:54.725Z,100.00
2022-10-20T18:29:21.931Z,100.00
2022-10-20T18:31:50.099Z,100.00
2022-10-20T18:34:23.211Z,100.00
2022-10-20T18:36:51.494Z,100.00
2022-10-20T18:39:18.553Z,100.00
2022-10-20T18:41:46.511Z,100.00
2022-10-20T18:44:16.201Z,100.00
2022-10-20T18:46:44.007Z,100.00
2022-10-20T18:49:19.802Z,100.00
2022-10-20T18:51:47.816Z,100.00
2022-10-20T18:54:15.645Z,100.00
2022-10-20T18:56:43.221Z,100.00
2022-10-20T18:59:14.204Z,100.00
2022-10-20T19:01:41.399Z,100.00
2022-10-20T19:04:10.383Z,100.00
2022-10-20T19:06:41.187Z,100.00
2022-10-20T19:09:11.416Z,100.00
2022-10-20T19:11:40.149Z,100.00
2022-10-20T19:14:09.891Z,100.00
2022-10-20T19:16:38.736Z,100.00
2022-10-20T19:19:07.752Z,100.00
2022-10-20T19:21:35.625Z,100.00
2022-10-20T19:24:15.855Z,100.00
2022-10-20T19:26:56.858Z,100.00
2022-10-20T19:29:29.971Z,100.00
2022-10-20T19:31:59.831Z,100.00
2022-10-20T19:34:35.847Z,100.00
2022-10-20T19:37:03.043Z,100.00
2022-10-20T19:39:33.658Z,100.00
2022-10-20T19:42:02.398Z,100.00
2022-10-20T19:44:29.667Z,100.00
2022-10-20T19:46:56.704Z,100.00
2022-10-20T19:49:24.398Z,100.00
2022-10-20T19:51:51.737Z,100.00
2022-10-20T19:54:19.027Z,100.00
2022-10-20T19:56:46.016Z,100.00
2022-10-20T19:59:14.149Z,100.00
2022-10-20T20:01:41.185Z,100.00
2022-10-20T20:04:08.239Z,100.00
2022-10-20T20:06:35.613Z,100.00
2022-10-20T20:09:06.330Z,100.00
2022-10-20T20:11:34.800Z,100.00
2022-10-20T20:14:07.729Z,100.00
2022-10-20T20:16:34.931Z,100.00
2022-10-20T20:19:02.043Z,100.00
2022-10-20T20:21:29.095Z,100.00
2022-10-20T20:24:00.207Z,100.00
2022-10-20T20:26:30.106Z,100.00
2022-10-20T20:28:57.704Z,100.00
2022-10-20T20:31:25.439Z,100.00
2022-10-20T20:33:53.140Z,100.00
2022-10-20T20:36:21.032Z,100.00
2022-10-20T20:38:49.293Z,100.00
2022-10-20T20:41:18.343Z,100.00
2022-10-20T20:43:45.443Z,100.00
2022-10-20T20:46:23.970Z,100.00
2022-10-20T20:48:51.477Z,100.00
2022-10-20T20:51:18.910Z,100.00
2022-10-20T20:53:45.962Z,100.00
2022-10-20T20:56:19.619Z,100.00
2022-10-20T20:58:49.217Z,100.00
2022-10-20T21:01:22.239Z,100.00
2022-10-20T21:03:56.532Z,100.00
2022-10-20T21:06:33.445Z,100.00
2022-10-20T21:09:01.555Z,100.00
2022-10-20T21:11:29.944Z,100.00
2022-10-20T21:13:59.166Z,100.00
2022-10-20T21:16:27.621Z,100.00
2022-10-20T21:18:57.381Z,100.00
2022-10-20T21:21:28.519Z,100.00
2022-10-20T21:23:56.994Z,100.00
2022-10-20T21:26:24.654Z,100.00
2022-10-20T21:28:53.067Z,100.00
2022-10-20T21:31:23.451Z,100.00
2022-10-20T21:33:51.909Z,100.00
2022-10-20T21:36:20.619Z,100.00
2022-10-20T21:38:48.470Z,100.00
2022-10-20T21:41:18.892Z,100.00
2022-10-20T21:43:49.038Z,100.00
2022-10-20T21:46:21.489Z,100.00
2022-10-20T21:48:50.633Z,100.00
2022-10-20T21:51:26.766Z,100.00
2022-10-20T21:54:01.600Z,100.00
2022-10-20T21:56:29.629Z,100.00
2022-10-20T21:58:56.569Z,100.00
2022-10-20T22:01:25.453Z,100.00
2022-10-20T22:03:54.038Z,100.00
2022-10-20T22:06:23.378Z,100.00
2022-10-20T22:08:53.175Z,100.00
2022-10-20T22:11:24.383Z,100.00
2022-10-20T22:13:51.905Z,100.00
2022-10-20T22:16:21.641Z,100.00
2022-10-20T22:18:48.648Z,100.00
2022-10-20T22:21:17.736Z,100.00
2022-10-20T22:23:45.570Z,100.00
2022-10-20T22:26:12.852Z,100.00
2022-10-20T22:28:40.523Z,100.00
2022-10-20T22:31:07.895Z,100.00
2022-10-20T22:33:35.369Z,100.00
2022-10-20T22:36:03.653Z,100.00
2022-10-20T22:38:31.157Z,100.00
2022-10-20T22:41:02.215Z,100.00
2022-10-20T22:43:30.720Z,100.00
2022-10-20T22:45:58.319Z,100.00
2022-10-20T22:48:25.646Z,100.00
2022-10-20T22:50:52.890Z,100.00
2022-10-20T22:53:20.015Z,100.00
2022-10-20T22:55:47.455Z,100.00
2022-10-20T22:58:14.503Z,100.00
2022-10-20T23:00:44.010Z,100.00
2022-10-20T23:03:11.055Z,100.00
2022-10-20T23:05:38.094Z,100.00
2022-10-20T23:08:05.909Z,100.00
2022-10-20T23:10:33.042Z,100.00
2022-10-20T23:13:00.002Z,100.00
2022-10-20T23:15:27.557Z,100.00
2022-10-20T23:17:55.597Z,100.00
2022-10-20T23:20:22.506Z,100.00
2022-10-20T23:22:49.506Z,100.00
2022-10-20T23:25:16.589Z,100.00
2022-10-20T23:27:43.685Z,100.00
2022-10-20T23:30:10.879Z,100.00
2022-10-20T23:32:37.871Z,100.00
2022-10-20T23:35:05.250Z,100.00
2022-10-20T23:37:33.003Z,100.00
2022-10-20T23:39:59.900Z,100.00
2022-10-20T23:42:26.838Z,100.00
2022-10-20T23:44:53.766Z,100.00
2022-10-20T23:47:21.009Z,100.00
2022-10-20T23:49:48.615Z,100.00
2022-10-20T23:52:15.608Z,100.00
2022-10-20T23:54:42.572Z,100.00
2022-10-20T23:57:09.605Z,100.00
2022-10-20T23:59:36.521Z,100.00
